createdAt,value
2022-08-05T00:00:51.811Z,61.03
2022-08-05T00:01:53.670Z,61.11
2022-08-05T00:02:55.617Z,61.08
2022-08-05T00:03:57.634Z,61.03
2022-08-05T00:04:59.599Z,61.04
2022-08-05T00:06:04.908Z,60.86
2022-08-05T00:07:58.930Z,60.59
2022-08-05T00:08:45.601Z,60.49
2022-08-05T00:09:49.211Z,60.42
2022-08-05T00:10:50.853Z,60.37
2022-08-05T00:11:56.079Z,60.28
2022-08-05T00:13:01.713Z,60.34
2022-08-05T00:14:11.981Z,60.44
2022-08-05T00:15:55.876Z,60.31
2022-08-05T00:16:52.595Z,60.13
2022-08-05T00:17:54.936Z,59.99
2022-08-05T00:18:56.769Z,60.00
2022-08-05T00:20:02.816Z,59.93
2022-08-05T00:21:06.860Z,59.83
2022-08-05T00:22:11.129Z,59.70
2022-08-05T00:23:13.384Z,59.71
2022-08-05T00:24:16.068Z,59.71
2022-08-05T00:25:20.738Z,59.67
2022-08-05T00:26:22.557Z,59.62
2022-08-05T00:27:28.398Z,59.59
2022-08-05T00:28:37.737Z,59.63
2022-08-05T00:29:41.489Z,59.73
2022-08-05T00:30:44.074Z,59.86
2022-08-05T00:32:10.471Z,59.83
2022-08-05T00:34:42.007Z,59.74
2022-08-05T00:34:55.634Z,59.73
2022-08-05T00:36:16.017Z,59.69
2022-08-05T00:37:14.255Z,59.79
2022-08-05T00:38:16.225Z,59.74
2022-08-05T00:39:41.603Z,59.73
2022-08-05T00:40:55.003Z,59.87
2022-08-05T00:41:56.695Z,59.91
2022-08-05T00:43:02.165Z,59.89
2022-08-05T00:44:05.102Z,59.95
2022-08-05T00:45:11.854Z,59.98
2022-08-05T00:46:15.257Z,60.02
2022-08-05T00:47:17.648Z,60.05
2022-08-05T00:48:27.412Z,60.13
2022-08-05T00:49:44.790Z,60.18
2022-08-05T00:50:54.278Z,60.27
2022-08-05T00:51:55.957Z,60.21
2022-08-05T00:52:57.704Z,60.23
2022-08-05T00:54:02.803Z,60.39
2022-08-05T00:55:05.487Z,60.42
2022-08-05T00:56:08.262Z,60.47
2022-08-05T00:57:10.015Z,60.55
2022-08-05T00:58:13.849Z,60.60
2022-08-05T00:59:15.476Z,60.58
2022-08-05T01:00:17.330Z,60.57
2022-08-05T01:01:24.958Z,60.71
2022-08-05T01:02:43.458Z,60.88
2022-08-05T01:03:45.757Z,60.89
2022-08-05T01:04:51.772Z,60.94
2022-08-05T01:05:54.624Z,61.02
2022-08-05T01:06:57.072Z,61.06
2022-08-05T01:08:40.575Z,61.23
2022-08-05T01:09:20.532Z,61.38
2022-08-05T01:10:38.529Z,61.37
2022-08-05T01:11:42.130Z,61.53
2022-08-05T01:13:00.408Z,61.54
2022-08-05T01:14:33.769Z,61.60
2022-08-05T01:15:47.900Z,61.69
2022-08-05T01:17:02.141Z,61.79
2022-08-05T01:18:09.590Z,61.91
2022-08-05T01:19:56.650Z,62.06
2022-08-05T01:21:38.135Z,62.21
2022-08-05T01:23:15.253Z,62.25
2022-08-05T01:24:39.355Z,62.31
2022-08-05T01:26:12.854Z,62.40
2022-08-05T01:27:28.941Z,62.67
2022-08-05T01:28:43.989Z,63.54
2022-08-05T01:29:49.940Z,63.03
2022-08-05T01:30:59.528Z,61.67
2022-08-05T01:32:12.323Z,59.90
2022-08-05T01:33:19.734Z,57.60
2022-08-05T01:34:32.206Z,56.06
2022-08-05T01:35:51.596Z,55.68
2022-08-05T01:37:25.083Z,56.07
2022-08-05T01:38:30.249Z,56.80
2022-08-05T01:39:46.573Z,57.29
2022-08-05T01:40:52.854Z,57.84
2022-08-05T01:41:58.740Z,58.26
2022-08-05T01:43:03.577Z,58.65
2022-08-05T01:44:09.863Z,59.00
2022-08-05T01:45:16.830Z,59.37
2022-08-05T01:46:42.077Z,59.65
2022-08-05T01:47:46.572Z,60.01
2022-08-05T01:48:52.774Z,60.22
2022-08-05T01:50:02.815Z,60.43
2022-08-05T01:51:12.157Z,60.68
2022-08-05T01:52:17.939Z,60.94
2022-08-05T01:53:55.151Z,61.13
2022-08-05T01:54:55.935Z,61.44
2022-08-05T01:56:04.517Z,61.68
2022-08-05T01:58:10.212Z,61.81
2022-08-05T01:58:44.651Z,62.11
2022-08-05T01:59:58.528Z,62.28
2022-08-05T02:01:03.220Z,62.51
2022-08-05T02:02:07.445Z,63.26
2022-08-05T02:03:38.973Z,63.33
2022-08-05T02:04:46.146Z,61.94
2022-08-05T02:05:57.884Z,60.33
2022-08-05T02:07:03.420Z,58.30
2022-08-05T02:08:06.000Z,56.32
2022-08-05T02:09:08.512Z,55.67
2022-08-05T02:10:17.317Z,55.80
2022-08-05T02:11:23.834Z,56.36
2022-08-05T02:12:50.997Z,57.09
2022-08-05T02:14:13.035Z,57.89
2022-08-05T02:15:33.340Z,58.56
2022-08-05T02:16:52.853Z,59.12
2022-08-05T02:18:30.925Z,59.59
2022-08-05T02:19:34.268Z,60.05
2022-08-05T02:20:58.720Z,60.40
2022-08-05T02:22:25.651Z,60.75
2022-08-05T02:23:37.112Z,61.11
2022-08-05T02:24:48.038Z,61.35
2022-08-05T02:25:56.281Z,61.68
2022-08-05T02:27:10.152Z,61.95
2022-08-05T02:28:14.989Z,62.25
2022-08-05T02:29:26.174Z,62.55
2022-08-05T02:30:54.559Z,63.58
2022-08-05T02:31:58.775Z,62.99
2022-08-05T02:33:10.063Z,61.66
2022-08-05T02:34:16.955Z,60.17
2022-08-05T02:35:28.336Z,58.57
2022-08-05T02:36:41.192Z,56.59
2022-08-05T02:37:46.494Z,56.24
2022-08-05T02:38:53.386Z,56.66
2022-08-05T02:39:55.793Z,57.28
2022-08-05T02:41:00.142Z,57.92
2022-08-05T02:42:25.940Z,58.64
2022-08-05T02:43:32.434Z,59.22
2022-08-05T02:44:39.492Z,59.73
2022-08-05T02:45:52.688Z,60.11
2022-08-05T02:47:00.609Z,60.52
2022-08-05T02:48:11.716Z,60.83
2022-08-05T02:49:18.173Z,61.24
2022-08-05T02:50:26.390Z,61.65
2022-08-05T02:52:02.857Z,61.96
2022-08-05T02:52:53.803Z,62.32
2022-08-05T02:54:03.169Z,62.65
2022-08-05T02:55:10.824Z,63.73
2022-08-05T02:56:16.014Z,63.52
2022-08-05T02:58:11.545Z,62.29
2022-08-05T02:58:45.472Z,60.48
2022-08-05T02:59:54.394Z,58.99
2022-08-05T03:00:58.843Z,57.23
2022-08-05T03:02:02.892Z,56.43
2022-08-05T03:03:07.663Z,56.56
2022-08-05T03:04:15.776Z,57.17
2022-08-05T03:05:21.647Z,57.85
2022-08-05T03:06:55.387Z,58.63
2022-08-05T03:08:08.959Z,59.40
2022-08-05T03:09:17.963Z,59.97
2022-08-05T03:10:37.713Z,60.53
2022-08-05T03:11:55.639Z,60.94
2022-08-05T03:14:03.023Z,61.78
2022-08-05T03:15:09.157Z,62.11
2022-08-05T03:16:11.133Z,62.41
2022-08-05T03:17:17.461Z,63.19
2022-08-05T03:18:24.618Z,63.76
2022-08-05T03:19:34.184Z,63.02
2022-08-05T03:20:38.112Z,61.69
2022-08-05T03:21:49.722Z,60.21
2022-08-05T03:22:53.180Z,58.70
2022-08-05T03:24:00.590Z,57.05
2022-08-05T03:25:31.640Z,56.52
2022-08-05T03:26:30.938Z,56.98
2022-08-05T03:27:57.587Z,57.72
2022-08-05T03:28:56.350Z,58.63
2022-08-05T03:30:08.387Z,59.25
2022-08-05T03:31:11.199Z,59.90
2022-08-05T03:32:33.110Z,60.60
2022-08-05T03:33:51.032Z,61.04
2022-08-05T03:34:55.133Z,61.51
2022-08-05T03:35:58.750Z,61.88
2022-08-05T03:37:01.535Z,62.19
2022-08-05T03:38:03.962Z,62.54
2022-08-05T03:39:13.188Z,63.40
2022-08-05T03:40:31.264Z,63.53
2022-08-05T03:41:45.149Z,62.42
2022-08-05T03:42:52.388Z,60.80
2022-08-05T03:44:08.731Z,59.44
2022-08-05T03:45:22.762Z,57.46
2022-08-05T03:46:26.821Z,56.74
2022-08-05T03:47:35.356Z,57.05
2022-08-05T03:48:42.915Z,57.74
2022-08-05T03:49:52.027Z,58.38
2022-08-05T03:52:38.509Z,59.09
2022-08-05T03:55:34.462Z,60.18
2022-08-05T03:55:51.303Z,60.91
2022-08-05T03:56:33.090Z,61.58
2022-08-05T03:57:42.253Z,62.14
2022-08-05T03:58:47.592Z,62.61
2022-08-05T04:00:19.548Z,63.63
2022-08-05T04:01:25.268Z,63.23
2022-08-05T04:02:37.698Z,61.90
2022-08-05T04:04:10.259Z,60.42
2022-08-05T04:05:10.584Z,58.41
2022-08-05T04:06:12.795Z,56.80
2022-08-05T04:07:15.279Z,56.53
2022-08-05T04:08:34.630Z,56.92
2022-08-05T04:09:38.685Z,57.73
2022-08-05T04:10:58.095Z,58.62
2022-08-05T04:11:59.978Z,59.32
2022-08-05T04:13:03.420Z,59.94
2022-08-05T04:14:07.255Z,60.45
2022-08-05T04:15:10.743Z,60.92
2022-08-05T04:16:24.080Z,61.42
2022-08-05T04:17:55.475Z,61.81
2022-08-05T04:18:54.455Z,62.27
2022-08-05T04:19:58.738Z,62.80
2022-08-05T04:21:00.652Z,63.69
2022-08-05T04:22:09.957Z,63.42
2022-08-05T04:23:16.104Z,62.11
2022-08-05T04:24:19.555Z,60.79
2022-08-05T04:25:57.555Z,59.60
2022-08-05T04:26:46.216Z,57.38
2022-08-05T04:27:58.175Z,56.66
2022-08-05T04:29:07.320Z,56.92
2022-08-05T04:30:09.959Z,57.54
2022-08-05T04:31:11.680Z,58.23
2022-08-05T04:32:13.615Z,58.91
2022-08-05T04:33:17.538Z,59.64
2022-08-05T04:34:42.993Z,60.35
2022-08-05T04:36:16.356Z,60.83
2022-08-05T04:37:06.924Z,61.31
2022-08-05T04:38:09.086Z,61.53
2022-08-05T04:39:10.817Z,61.91
2022-08-05T04:40:14.703Z,62.32
2022-08-05T04:41:21.390Z,62.76
2022-08-05T04:42:38.280Z,64.01
2022-08-05T04:43:48.089Z,63.52
2022-08-05T04:44:53.742Z,62.27
2022-08-05T04:45:55.723Z,61.37
2022-08-05T04:46:59.526Z,59.85
2022-08-05T04:48:18.441Z,58.65
2022-08-05T04:49:38.807Z,56.72
2022-08-05T04:51:01.939Z,56.74
2022-08-05T04:52:06.421Z,57.53
2022-08-05T04:53:10.947Z,58.13
2022-08-05T04:54:14.710Z,58.58
2022-08-05T04:55:16.499Z,59.21
2022-08-05T04:56:35.191Z,59.91
2022-08-05T04:57:38.681Z,60.47
2022-08-05T04:58:40.818Z,61.04
2022-08-05T04:59:42.468Z,61.55
2022-08-05T05:00:50.825Z,62.02
2022-08-05T05:02:07.417Z,62.41
2022-08-05T05:03:14.725Z,63.49
2022-08-05T05:04:21.980Z,63.48
2022-08-05T05:05:28.258Z,62.51
2022-08-05T05:06:39.618Z,61.33
2022-08-05T05:07:46.060Z,59.71
2022-08-05T05:08:58.069Z,57.79
2022-08-05T05:10:05.401Z,56.74
2022-08-05T05:11:08.105Z,56.72
2022-08-05T05:12:09.769Z,57.06
2022-08-05T05:13:15.727Z,57.68
2022-08-05T05:14:17.647Z,58.27
2022-08-05T05:15:56.546Z,59.07
2022-08-05T05:16:51.585Z,59.67
2022-08-05T05:17:57.737Z,60.09
2022-08-05T05:19:19.530Z,60.56
2022-08-05T05:20:22.450Z,60.88
2022-08-05T05:21:29.834Z,61.38
2022-08-05T05:22:35.605Z,61.84
2022-08-05T05:24:03.781Z,62.28
2022-08-05T05:25:16.543Z,62.31
2022-08-05T05:26:19.739Z,62.67
2022-08-05T05:27:44.348Z,63.63
2022-08-05T05:28:50.493Z,63.19
2022-08-05T05:30:04.652Z,62.03
2022-08-05T05:31:08.881Z,60.43
2022-08-05T05:32:12.579Z,58.87
2022-08-05T05:33:17.699Z,57.10
2022-08-05T05:34:26.697Z,56.38
2022-08-05T05:35:34.274Z,56.61
2022-08-05T05:36:39.480Z,57.10
2022-08-05T05:38:01.450Z,57.58
2022-08-05T05:39:04.465Z,58.13
2022-08-05T05:40:07.112Z,58.55
2022-08-05T05:41:09.358Z,59.05
2022-08-05T05:42:14.025Z,59.64
2022-08-05T05:43:16.126Z,59.97
2022-08-05T05:44:35.777Z,60.07
2022-08-05T05:45:38.711Z,60.19
2022-08-05T05:46:49.987Z,60.03
2022-08-05T05:48:05.469Z,59.93
2022-08-05T05:49:13.534Z,60.06
2022-08-05T05:50:25.793Z,60.26
2022-08-05T05:51:28.004Z,60.33
2022-08-05T05:52:34.581Z,60.53
2022-08-05T05:53:54.541Z,60.85
2022-08-05T05:55:01.959Z,60.81
2022-08-05T05:56:09.580Z,60.94
2022-08-05T05:57:19.001Z,60.94
2022-08-05T05:58:21.585Z,61.06
2022-08-05T05:59:33.006Z,61.24
2022-08-05T06:00:42.108Z,61.39
2022-08-05T06:01:57.705Z,61.36
2022-08-05T06:03:02.319Z,61.29
2022-08-05T06:04:04.467Z,61.54
2022-08-05T06:05:16.521Z,61.73
2022-08-05T06:06:18.761Z,61.55
2022-08-05T06:07:24.328Z,61.45
2022-08-05T06:08:44.393Z,61.59
2022-08-05T06:10:01.659Z,61.77
2022-08-05T06:11:07.538Z,61.51
2022-08-05T06:12:09.555Z,61.36
2022-08-05T06:13:11.519Z,61.20
2022-08-05T06:14:13.907Z,61.18
2022-08-05T06:15:24.125Z,61.28
2022-08-05T06:16:29.202Z,61.49
2022-08-05T06:17:52.795Z,61.66
2022-08-05T06:18:55.498Z,61.90
2022-08-05T06:20:02.091Z,61.78
2022-08-05T06:21:04.898Z,61.47
2022-08-05T06:22:09.784Z,61.40
2022-08-05T06:23:11.425Z,61.48
2022-08-05T06:24:14.744Z,61.24
2022-08-05T06:25:59.324Z,60.90
2022-08-05T06:26:38.241Z,60.90
2022-08-05T06:28:09.158Z,60.78
2022-08-05T06:29:03.681Z,60.73
2022-08-05T06:30:23.311Z,60.64
2022-08-05T06:31:30.386Z,60.51
2022-08-05T06:32:32.407Z,60.52
2022-08-05T06:34:06.869Z,60.67
2022-08-05T06:34:58.674Z,60.54
2022-08-05T06:36:05.774Z,60.30
2022-08-05T06:37:11.137Z,60.00
2022-08-05T06:38:14.469Z,59.93
2022-08-05T06:39:17.826Z,59.72
2022-08-05T06:40:27.729Z,59.68
2022-08-05T06:41:29.969Z,59.80
2022-08-05T06:42:37.063Z,60.08
2022-08-05T06:43:58.763Z,60.15
2022-08-05T06:45:05.561Z,59.86
2022-08-05T06:46:10.091Z,59.90
2022-08-05T06:47:21.662Z,59.81
2022-08-05T06:48:55.314Z,59.71
2022-08-05T06:50:01.566Z,59.13
2022-08-05T06:51:09.513Z,59.02
2022-08-05T06:52:36.965Z,59.05
2022-08-05T06:53:39.315Z,59.28
2022-08-05T06:54:41.214Z,59.28
2022-08-05T06:55:42.959Z,58.89
2022-08-05T06:56:54.820Z,58.57
2022-08-05T06:58:20.008Z,58.58
2022-08-05T06:59:30.813Z,58.93
2022-08-05T07:00:41.159Z,58.92
2022-08-05T07:01:43.077Z,58.83
2022-08-05T07:02:47.883Z,58.43
2022-08-05T07:03:55.614Z,58.15
2022-08-05T07:04:57.278Z,58.08
2022-08-05T07:06:05.992Z,58.05
2022-08-05T07:07:15.735Z,57.79
2022-08-05T07:08:26.130Z,57.67
2022-08-05T07:09:32.301Z,57.72
2022-08-05T07:10:34.264Z,57.69
2022-08-05T07:11:37.095Z,57.59
2022-08-05T07:12:57.588Z,57.66
2022-08-05T07:14:29.716Z,57.87
2022-08-05T07:16:00.983Z,57.91
2022-08-05T07:18:01.615Z,57.52
2022-08-05T07:18:29.277Z,56.97
2022-08-05T07:20:16.710Z,56.64
2022-08-05T07:20:53.993Z,56.76
2022-08-05T07:21:59.856Z,56.81
2022-08-05T07:23:02.988Z,57.08
2022-08-05T07:24:11.212Z,57.21
2022-08-05T07:25:54.345Z,57.10
2022-08-05T07:26:34.922Z,57.10
2022-08-05T07:27:56.656Z,57.34
2022-08-05T07:28:59.770Z,57.39
2022-08-05T07:30:27.919Z,56.79
2022-08-05T07:31:54.196Z,56.51
2022-08-05T07:32:45.444Z,56.42
2022-08-05T07:33:54.988Z,56.18
2022-08-05T07:35:01.590Z,56.16
2022-08-05T07:36:23.334Z,55.97
2022-08-05T07:37:28.877Z,55.49
2022-08-05T07:38:34.460Z,55.35
2022-08-05T07:40:04.731Z,55.09
2022-08-05T07:41:04.533Z,55.08
2022-08-05T07:42:18.984Z,54.78
2022-08-05T07:43:33.702Z,54.12
2022-08-05T07:44:36.557Z,54.29
2022-08-05T07:45:57.136Z,54.54
2022-08-05T07:47:00.063Z,54.57
2022-08-05T07:48:02.442Z,54.63
2022-08-05T07:49:06.206Z,54.52
2022-08-05T07:50:10.028Z,54.25
2022-08-05T07:51:23.823Z,54.20
2022-08-05T07:52:39.873Z,54.12
2022-08-05T07:53:49.997Z,53.65
2022-08-05T07:54:53.046Z,53.53
2022-08-05T07:56:06.098Z,53.73
2022-08-05T07:57:51.372Z,53.53
2022-08-05T07:58:57.321Z,53.63
2022-08-05T08:00:00.209Z,53.67
2022-08-05T08:01:01.904Z,53.92
2022-08-05T08:02:16.499Z,54.09
2022-08-05T08:03:21.552Z,53.27
2022-08-05T08:04:37.318Z,52.36
2022-08-05T08:05:49.716Z,52.56
2022-08-05T08:06:51.677Z,52.18
2022-08-05T08:07:59.868Z,51.90
2022-08-05T08:09:02.268Z,52.08
2022-08-05T08:10:05.368Z,52.58
2022-08-05T08:11:08.940Z,52.52
2022-08-05T08:12:33.410Z,52.74
2022-08-05T08:13:49.298Z,52.54
2022-08-05T08:14:57.432Z,52.70
2022-08-05T08:16:35.215Z,51.74
2022-08-05T08:17:27.936Z,51.82
2022-08-05T08:18:32.001Z,51.85
2022-08-05T08:20:21.925Z,51.47
2022-08-05T08:21:03.201Z,51.56
2022-08-05T08:22:09.006Z,51.44
2022-08-05T08:23:59.663Z,50.74
2022-08-05T08:24:51.650Z,50.86
2022-08-05T08:26:00.653Z,50.91
2022-08-05T08:27:07.039Z,50.79
2022-08-05T08:28:17.975Z,51.02
2022-08-05T08:29:45.203Z,51.21
2022-08-05T08:30:47.973Z,51.04
2022-08-05T08:31:52.268Z,50.75
2022-08-05T08:32:54.054Z,50.43
2022-08-05T08:33:56.352Z,50.55
2022-08-05T08:34:58.751Z,50.15
2022-08-05T08:36:29.451Z,50.39
2022-08-05T08:37:28.075Z,50.55
2022-08-05T08:38:35.248Z,49.43
2022-08-05T08:39:38.142Z,49.04
2022-08-05T08:40:51.434Z,48.64
2022-08-05T08:42:02.482Z,48.66
2022-08-05T08:45:21.001Z,48.45
2022-08-05T08:45:21.241Z,48.20
2022-08-05T08:45:58.933Z,48.21
2022-08-05T08:47:03.834Z,48.01
2022-08-05T08:49:03.545Z,47.63
2022-08-05T08:50:06.011Z,47.81
2022-08-05T08:52:01.662Z,47.12
2022-08-05T08:52:51.636Z,46.59
2022-08-05T08:53:55.152Z,46.56
2022-08-05T08:54:57.810Z,46.60
2022-08-05T08:56:06.043Z,46.80
2022-08-05T08:57:11.548Z,46.94
2022-08-05T08:58:16.275Z,46.80
2022-08-05T08:59:20.934Z,46.34
2022-08-05T09:00:23.654Z,45.78
2022-08-05T09:01:28.377Z,46.20
2022-08-05T09:02:30.929Z,45.84
2022-08-05T09:03:45.381Z,45.21
2022-08-05T09:05:15.929Z,44.65
2022-08-05T09:06:11.643Z,45.09
2022-08-05T09:07:28.167Z,45.27
2022-08-05T09:08:30.538Z,45.57
2022-08-05T09:09:35.443Z,45.81
2022-08-05T09:10:41.340Z,46.21
2022-08-05T09:11:52.457Z,46.50
2022-08-05T09:13:04.717Z,45.59
2022-08-05T09:14:54.814Z,45.42
2022-08-05T09:15:30.490Z,45.83
2022-08-05T09:16:32.726Z,44.65
2022-08-05T09:17:40.486Z,44.01
2022-08-05T09:18:44.529Z,44.10
2022-08-05T09:20:01.374Z,44.67
2022-08-05T09:21:04.810Z,44.77
2022-08-05T09:22:31.090Z,44.98
2022-08-05T09:23:37.525Z,45.72
2022-08-05T09:25:13.793Z,45.37
2022-08-05T09:26:25.178Z,44.77
2022-08-05T09:28:05.053Z,44.94
2022-08-05T09:29:04.932Z,44.60
2022-08-05T09:30:07.318Z,44.20
2022-08-05T09:31:23.193Z,44.03
2022-08-05T09:32:51.104Z,44.33
2022-08-05T09:33:55.369Z,43.64
2022-08-05T09:34:58.990Z,43.76
2022-08-05T09:36:11.834Z,43.96
2022-08-05T09:38:11.653Z,44.06
2022-08-05T09:39:00.084Z,43.24
2022-08-05T09:40:04.794Z,43.80
2022-08-05T09:41:10.051Z,43.97
2022-08-05T09:42:17.400Z,44.50
2022-08-05T09:43:41.366Z,44.59
2022-08-05T09:44:50.501Z,44.56
2022-08-05T09:46:06.177Z,44.80
2022-08-05T09:47:16.529Z,44.04
2022-08-05T09:48:31.453Z,42.57
2022-08-05T09:49:54.593Z,42.39
2022-08-05T09:51:01.058Z,42.61
2022-08-05T09:52:27.468Z,41.20
2022-08-05T09:53:54.794Z,41.72
2022-08-05T09:54:56.833Z,41.85
2022-08-05T09:56:04.526Z,42.04
2022-08-05T09:57:23.150Z,42.03
2022-08-05T09:58:26.622Z,43.11
2022-08-05T09:59:35.016Z,42.76
2022-08-05T10:00:39.550Z,42.18
2022-08-05T10:01:46.491Z,42.18
2022-08-05T10:02:51.389Z,41.81
2022-08-05T10:04:00.230Z,41.82
2022-08-05T10:05:26.654Z,41.98
2022-08-05T10:06:29.276Z,42.22
2022-08-05T10:08:36.136Z,42.15
2022-08-05T10:09:27.329Z,41.56
2022-08-05T10:10:48.192Z,41.27
2022-08-05T10:11:51.987Z,41.58
2022-08-05T10:12:57.117Z,42.30
2022-08-05T10:13:58.774Z,42.20
2022-08-05T10:15:20.321Z,41.77
2022-08-05T10:16:41.773Z,41.27
2022-08-05T10:18:22.698Z,40.53
2022-08-05T10:20:02.695Z,40.99
2022-08-05T10:20:57.721Z,40.43
2022-08-05T10:21:59.433Z,40.37
2022-08-05T10:23:01.971Z,39.95
2022-08-05T10:24:10.585Z,39.65
2022-08-05T10:25:14.396Z,40.19
2022-08-05T10:26:16.473Z,40.58
2022-08-05T10:27:19.003Z,40.41
2022-08-05T10:28:30.550Z,40.74
2022-08-05T10:30:06.784Z,40.62
2022-08-05T10:32:50.500Z,40.31
2022-08-05T10:32:55.447Z,40.57
2022-08-05T10:33:45.416Z,41.00
2022-08-05T10:34:55.376Z,41.21
2022-08-05T10:36:00.077Z,40.82
2022-08-05T10:37:02.454Z,39.40
2022-08-05T10:38:06.127Z,39.13
2022-08-05T10:39:24.915Z,39.17
2022-08-05T10:40:49.567Z,39.78
2022-08-05T10:42:00.485Z,39.49
2022-08-05T10:43:37.253Z,38.89
2022-08-05T10:44:45.875Z,38.94
2022-08-05T10:46:06.215Z,38.29
2022-08-05T10:47:26.938Z,39.10
2022-08-05T10:48:52.762Z,39.10
2022-08-05T10:50:32.863Z,38.44
2022-08-05T10:51:58.282Z,37.13
2022-08-05T10:53:02.260Z,37.92
2022-08-05T10:54:28.166Z,37.77
2022-08-05T10:55:27.771Z,38.15
2022-08-05T10:56:44.395Z,38.58
2022-08-05T10:57:47.124Z,39.37
2022-08-05T10:58:52.939Z,40.06
2022-08-05T11:00:09.902Z,39.54
2022-08-05T11:01:55.158Z,39.65
2022-08-05T11:03:24.371Z,38.70
2022-08-05T11:04:28.113Z,38.84
2022-08-05T11:05:34.645Z,38.60
2022-08-05T11:06:57.981Z,38.30
2022-08-05T11:08:21.756Z,37.17
2022-08-05T11:09:32.482Z,37.39
2022-08-05T11:10:50.258Z,37.31
2022-08-05T11:12:04.202Z,36.67
2022-08-05T11:13:06.879Z,36.49
2022-08-05T11:14:11.636Z,36.49
2022-08-05T11:15:20.479Z,36.50
2022-08-05T11:16:47.953Z,37.59
2022-08-05T11:18:00.279Z,39.16
2022-08-05T11:20:10.007Z,37.37
2022-08-05T11:20:53.784Z,37.50
2022-08-05T11:21:57.906Z,38.10
2022-08-05T11:23:06.112Z,37.67
2022-08-05T11:24:30.437Z,36.44
2022-08-05T11:26:05.698Z,35.93
2022-08-05T11:27:45.693Z,36.04
2022-08-05T11:28:54.987Z,35.05
2022-08-05T11:30:00.248Z,35.02
2022-08-05T11:31:01.820Z,35.74
2022-08-05T11:32:27.375Z,35.53
2022-08-05T11:33:54.761Z,34.86
2022-08-05T11:34:57.529Z,35.39
2022-08-05T11:36:02.907Z,34.32
2022-08-05T11:38:28.889Z,34.47
2022-08-05T11:38:45.748Z,34.88
2022-08-05T11:40:00.642Z,34.91
2022-08-05T11:41:56.547Z,34.93
2022-08-05T11:42:46.053Z,34.78
2022-08-05T11:44:06.503Z,35.11
2022-08-05T11:45:23.267Z,34.37
2022-08-05T11:46:34.047Z,34.68
2022-08-05T11:47:49.523Z,35.28
2022-08-05T11:48:52.268Z,34.67
2022-08-05T11:49:58.946Z,34.62
2022-08-05T11:51:01.788Z,34.80
2022-08-05T11:52:08.774Z,34.19
2022-08-05T11:53:13.383Z,34.10
2022-08-05T11:54:33.508Z,34.13
2022-08-05T11:55:36.685Z,33.81
2022-08-05T11:56:51.402Z,33.48
2022-08-05T11:58:09.676Z,33.81
2022-08-05T11:59:21.472Z,33.94
2022-08-05T12:00:31.261Z,33.55
2022-08-05T12:01:32.959Z,33.77
2022-08-05T12:02:36.246Z,33.93
2022-08-05T12:03:56.051Z,33.87
2022-08-05T12:04:59.724Z,33.64
2022-08-05T12:06:06.636Z,33.65
2022-08-05T12:07:14.811Z,33.08
2022-08-05T12:08:18.279Z,32.85
2022-08-05T12:09:38.562Z,33.29
2022-08-05T12:10:49.535Z,33.31
2022-08-05T12:11:54.455Z,33.18
2022-08-05T12:13:15.571Z,32.58
2022-08-05T12:14:19.408Z,32.53
2022-08-05T12:15:33.278Z,32.75
2022-08-05T12:16:45.373Z,32.32
2022-08-05T12:18:02.879Z,32.54
2022-08-05T12:19:08.671Z,33.12
2022-08-05T12:20:25.469Z,33.29
2022-08-05T12:21:32.482Z,33.00
2022-08-05T12:22:40.956Z,32.78
2022-08-05T12:23:54.915Z,32.96
2022-08-05T12:24:57.744Z,33.14
2022-08-05T12:25:59.375Z,32.58
2022-08-05T12:27:09.715Z,32.35
2022-08-05T12:28:37.689Z,31.81
2022-08-05T12:29:39.527Z,31.66
2022-08-05T12:30:46.038Z,31.21
2022-08-05T12:32:02.046Z,31.28
2022-08-05T12:33:07.452Z,31.05
2022-08-05T12:34:29.931Z,31.70
2022-08-05T12:35:39.438Z,31.85
2022-08-05T12:36:43.584Z,32.24
2022-08-05T12:37:47.197Z,32.81
2022-08-05T12:38:50.588Z,31.82
2022-08-05T12:39:53.793Z,31.68
2022-08-05T12:40:59.684Z,31.87
2022-08-05T12:42:01.622Z,31.75
2022-08-05T12:43:07.025Z,31.88
2022-08-05T12:44:21.579Z,32.50
2022-08-05T12:45:48.370Z,31.90
2022-08-05T12:46:54.432Z,31.47
2022-08-05T12:48:17.624Z,31.57
2022-08-05T12:49:19.058Z,32.14
2022-08-05T12:50:21.066Z,32.13
2022-08-05T12:52:14.199Z,31.76
2022-08-05T12:52:59.695Z,32.12
2022-08-05T12:54:03.962Z,31.71
2022-08-05T12:55:28.529Z,31.61
2022-08-05T12:56:40.827Z,31.78
2022-08-05T12:58:52.742Z,31.06
2022-08-05T12:59:13.968Z,30.82
2022-08-05T13:02:01.166Z,30.67
2022-08-05T13:02:06.975Z,30.65
2022-08-05T13:03:12.293Z,29.72
2022-08-05T13:04:21.202Z,29.33
2022-08-05T13:05:24.575Z,29.37
2022-08-05T13:06:41.193Z,29.58
2022-08-05T13:08:00.141Z,29.92
2022-08-05T13:09:10.379Z,29.60
2022-08-05T13:10:19.531Z,29.58
2022-08-05T13:11:59.844Z,29.40
2022-08-05T13:12:51.023Z,28.66
2022-08-05T13:14:06.467Z,28.24
2022-08-05T13:15:18.043Z,28.15
2022-08-05T13:16:28.047Z,28.11
2022-08-05T13:17:41.871Z,28.83
2022-08-05T13:18:58.761Z,28.86
2022-08-05T13:20:16.510Z,28.64
2022-08-05T13:21:20.909Z,28.49
2022-08-05T13:22:28.380Z,28.34
2022-08-05T13:23:31.581Z,28.31
2022-08-05T13:24:57.313Z,28.24
2022-08-05T13:26:01.362Z,28.33
2022-08-05T13:27:03.207Z,28.43
2022-08-05T13:28:06.445Z,28.53
2022-08-05T13:29:08.357Z,29.07
2022-08-05T13:30:34.868Z,28.80
2022-08-05T13:32:04.023Z,27.55
2022-08-05T13:33:01.633Z,27.18
2022-08-05T13:34:23.128Z,27.03
2022-08-05T13:35:42.674Z,27.31
2022-08-05T13:36:47.139Z,27.26
2022-08-05T13:37:55.402Z,27.53
2022-08-05T13:38:57.582Z,28.23
2022-08-05T13:40:14.583Z,29.00
2022-08-05T13:41:21.396Z,29.57
2022-08-05T13:42:27.491Z,30.02
2022-08-05T13:43:45.690Z,29.49
2022-08-05T13:44:55.597Z,29.25
2022-08-05T13:45:57.623Z,29.28
2022-08-05T13:47:04.759Z,29.99
2022-08-05T13:48:58.582Z,29.07
2022-08-05T13:49:35.377Z,28.98
2022-08-05T13:50:37.264Z,29.09
2022-08-05T13:51:41.371Z,29.29
2022-08-05T13:52:43.548Z,29.18
2022-08-05T13:53:47.947Z,28.80
2022-08-05T13:54:53.287Z,28.38
2022-08-05T13:56:00.166Z,28.62
2022-08-05T13:57:03.770Z,28.31
2022-08-05T13:58:07.989Z,28.18
2022-08-05T13:59:20.427Z,28.05
2022-08-05T14:00:27.519Z,28.27
2022-08-05T14:01:44.432Z,28.21
2022-08-05T14:02:51.298Z,27.92
2022-08-05T14:04:11.578Z,27.82
2022-08-05T14:05:29.550Z,27.78
2022-08-05T14:06:37.442Z,27.53
2022-08-05T14:07:59.742Z,27.17
2022-08-05T14:09:08.574Z,26.78
2022-08-05T14:10:30.873Z,27.38
2022-08-05T14:11:33.052Z,27.40
2022-08-05T14:12:54.808Z,27.51
2022-08-05T14:13:57.734Z,28.14
2022-08-05T14:14:59.931Z,28.45
2022-08-05T14:16:05.996Z,28.60
2022-08-05T14:17:16.882Z,28.75
2022-08-05T14:18:23.510Z,28.28
2022-08-05T14:19:25.841Z,27.92
2022-08-05T14:20:29.689Z,27.79
2022-08-05T14:22:09.997Z,27.79
2022-08-05T14:22:53.536Z,27.98
2022-08-05T14:23:55.168Z,28.34
2022-08-05T14:24:56.795Z,28.52
2022-08-05T14:25:59.663Z,27.89
2022-08-05T14:27:17.492Z,28.10
2022-08-05T14:28:26.923Z,27.45
2022-08-05T14:29:29.341Z,26.39
2022-08-05T14:30:33.087Z,26.18
2022-08-05T14:32:02.724Z,26.48
2022-08-05T14:32:57.129Z,26.10
2022-08-05T14:34:00.860Z,25.81
2022-08-05T14:35:04.219Z,24.99
2022-08-05T14:36:12.441Z,24.25
2022-08-05T14:37:14.170Z,24.62
2022-08-05T14:38:31.571Z,24.55
2022-08-05T14:39:49.234Z,24.15
2022-08-05T14:40:55.317Z,24.53
2022-08-05T14:42:19.527Z,24.23
2022-08-05T14:43:20.577Z,24.25
2022-08-05T14:44:42.245Z,24.04
2022-08-05T14:45:44.623Z,23.81
2022-08-05T14:46:46.317Z,23.54
2022-08-05T14:48:03.501Z,23.57
2022-08-05T14:49:08.333Z,22.88
2022-08-05T14:50:17.749Z,22.41
2022-08-05T14:51:20.442Z,22.57
2022-08-05T14:52:50.119Z,22.36
2022-08-05T14:54:06.676Z,22.35
2022-08-05T14:55:17.211Z,22.55
2022-08-05T14:56:22.849Z,23.06
2022-08-05T14:57:34.104Z,22.96
2022-08-05T14:58:53.010Z,23.45
2022-08-05T14:59:54.852Z,23.67
2022-08-05T15:01:00.322Z,23.27
2022-08-05T15:02:15.138Z,23.85
2022-08-05T15:03:17.886Z,23.08
2022-08-05T15:04:22.517Z,22.95
2022-08-05T15:05:30.022Z,22.39
2022-08-05T15:06:49.603Z,22.45
2022-08-05T15:08:08.792Z,22.41
2022-08-05T15:09:13.289Z,22.78
2022-08-05T15:10:17.162Z,22.83
2022-08-05T15:11:18.856Z,23.03
2022-08-05T15:12:21.153Z,22.98
2022-08-05T15:13:45.945Z,23.37
2022-08-05T15:14:49.987Z,23.39
2022-08-05T15:15:55.261Z,23.41
2022-08-05T15:16:57.753Z,22.83